sensor_id;sensor_type;location;lat;lon;timestamp;P1;durP1;ratioP1;P2;durP2;ratioP2
2710;SDS011;20721;47.402;8.550;2023-02-15T00:01:52;27.81;;;26.13;;
2710;SDS011;20721;47.402;8.550;2023-02-15T00:02:48;28.43;;;27.36;;
2710;SDS011;20721;47.402;8.550;2023-02-15T00:03:48;28.23;;;26.95;;
2710;SDS011;20721;47.402;8.550;2023-02-15T00:04:57;30.89;;;29.20;;
2710;SDS011;20721;47.402;8.550;2023-02-15T00:05:47;28.43;;;26.95;;
2710;SDS011;20721;47.402;8.550;2023-02-15T00:06:47;29.92;;;27.95;;
2710;SDS011;20721;47.402;8.550;2023-02-15T00:07:51;28.98;;;27.28;;
2710;SDS011;20721;47.402;8.550;2023-02-15T00:08:48;28.57;;;26.89;;
2710;SDS011;20721;47.402;8.550;2023-02-15T00:09:47;30.63;;;28.79;;
2710;SDS011;20721;47.402;8.550;2023-02-15T00:10:47;27.94;;;26.15;;
2710;SDS011;20721;47.402;8.550;2023-02-15T00:11:50;30.67;;;28.03;;
2710;SDS011;20721;47.402;8.550;2023-02-15T00:12:47;30.68;;;28.37;;
2710;SDS011;20721;47.402;8.550;2023-02-15T00:14:47;29.02;;;27.64;;
2710;SDS011;20721;47.402;8.550;2023-02-15T00:15:47;31.87;;;29.91;;
2710;SDS011;20721;47.402;8.550;2023-02-15T00:16:49;30.43;;;28.55;;
2710;SDS011;20721;47.402;8.550;2023-02-15T00:17:47;28.85;;;27.57;;
2710;SDS011;20721;47.402;8.550;2023-02-15T00:18:51;28.01;;;26.88;;
2710;SDS011;20721;47.402;8.550;2023-02-15T00:19:47;26.96;;;26.08;;
2710;SDS011;20721;47.402;8.550;2023-02-15T00:20:47;28.51;;;27.38;;
2710;SDS011;20721;47.402;8.550;2023-02-15T00:21:48;29.56;;;27.69;;
2710;SDS011;20721;47.402;8.550;2023-02-15T00:22:48;27.47;;;26.05;;
2710;SDS011;20721;47.402;8.550;2023-02-15T00:23:47;28.94;;;27.80;;
2710;SDS011;20721;47.402;8.550;2023-02-15T00:24:47;28.12;;;27.08;;
2710;SDS011;20721;47.402;8.550;2023-02-15T00:25:48;27.33;;;26.08;;
2710;SDS011;20721;47.402;8.550;2023-02-15T00:26:48;28.85;;;26.86;;
2710;SDS011;20721;47.402;8.550;2023-02-15T00:28:48;26.22;;;25.04;;
2710;SDS011;20721;47.402;8.550;2023-02-15T00:29:47;26.80;;;25.49;;
2710;SDS011;20721;47.402;8.550;2023-02-15T00:30:47;26.56;;;25.12;;
2710;SDS011;20721;47.402;8.550;2023-02-15T00:31:48;28.68;;;26.78;;
2710;SDS011;20721;47.402;8.550;2023-02-15T00:32:48;30.85;;;28.00;;
2710;SDS011;20721;47.402;8.550;2023-02-15T00:33:48;27.97;;;26.12;;
2710;SDS011;20721;47.402;8.550;2023-02-15T00:35:47;26.67;;;25.23;;
2710;SDS011;20721;47.402;8.550;2023-02-15T00:36:48;24.73;;;23.81;;
2710;SDS011;20721;47.402;8.550;2023-02-15T00:38:52;26.68;;;25.54;;
2710;SDS011;20721;47.402;8.550;2023-02-15T00:39:47;26.63;;;25.44;;
2710;SDS011;20721;47.402;8.550;2023-02-15T00:40:51;26.76;;;25.69;;
2710;SDS011;20721;47.402;8.550;2023-02-15T00:41:47;26.57;;;25.58;;
2710;SDS011;20721;47.402;8.550;2023-02-15T00:42:47;28.04;;;26.25;;
2710;SDS011;20721;47.402;8.550;2023-02-15T00:44:51;27.82;;;26.68;;
2710;SDS011;20721;47.402;8.550;2023-02-15T00:45:48;26.81;;;25.71;;
2710;SDS011;20721;47.402;8.550;2023-02-15T00:46:48;24.14;;;23.41;;
2710;SDS011;20721;47.402;8.550;2023-02-15T00:47:47;24.82;;;23.64;;
2710;SDS011;20721;47.402;8.550;2023-02-15T00:48:48;26.03;;;24.39;;
2710;SDS011;20721;47.402;8.550;2023-02-15T00:49:47;24.21;;;22.95;;
2710;SDS011;20721;47.402;8.550;2023-02-15T00:50:49;23.41;;;22.53;;
2710;SDS011;20721;47.402;8.550;2023-02-15T00:51:47;27.63;;;25.88;;
2710;SDS011;20721;47.402;8.550;2023-02-15T00:52:47;25.74;;;24.63;;
2710;SDS011;20721;47.402;8.550;2023-02-15T00:53:48;29.05;;;26.25;;
2710;SDS011;20721;47.402;8.550;2023-02-15T00:54:48;28.25;;;25.96;;
2710;SDS011;20721;47.402;8.550;2023-02-15T00:56:47;25.69;;;24.42;;
2710;SDS011;20721;47.402;8.550;2023-02-15T00:58:48;26.74;;;25.39;;
2710;SDS011;20721;47.402;8.550;2023-02-15T00:59:47;26.71;;;25.52;;
2710;SDS011;20721;47.402;8.550;2023-02-15T01:00:48;28.19;;;26.89;;
2710;SDS011;20721;47.402;8.550;2023-02-15T01:01:47;24.93;;;24.08;;
2710;SDS011;20721;47.402;8.550;2023-02-15T01:02:48;24.82;;;23.83;;
2710;SDS011;20721;47.402;8.550;2023-02-15T01:03:48;25.39;;;24.26;;
2710;SDS011;20721;47.402;8.550;2023-02-15T01:04:47;28.05;;;26.26;;
2710;SDS011;20721;47.402;8.550;2023-02-15T01:05:48;27.01;;;24.97;;
2710;SDS011;20721;47.402;8.550;2023-02-15T01:06:47;27.51;;;25.68;;
2710;SDS011;20721;47.402;8.550;2023-02-15T01:07:48;26.57;;;25.25;;
2710;SDS011;20721;47.402;8.550;2023-02-15T01:08:48;26.76;;;25.38;;
2710;SDS011;20721;47.402;8.550;2023-02-15T01:09:47;26.08;;;24.92;;
2710;SDS011;20721;47.402;8.550;2023-02-15T01:10:48;26.88;;;25.25;;
2710;SDS011;20721;47.402;8.550;2023-02-15T01:11:47;28.52;;;26.46;;
2710;SDS011;20721;47.402;8.550;2023-02-15T01:12:47;26.86;;;25.31;;
2710;SDS011;20721;47.402;8.550;2023-02-15T01:13:49;27.84;;;26.40;;
2710;SDS011;20721;47.402;8.550;2023-02-15T01:14:48;25.54;;;24.24;;
2710;SDS011;20721;47.402;8.550;2023-02-15T01:15:54;26.09;;;24.50;;
2710;SDS011;20721;47.402;8.550;2023-02-15T01:17:47;26.05;;;24.67;;
2710;SDS011;20721;47.402;8.550;2023-02-15T01:18:48;25.50;;;24.44;;
2710;SDS011;20721;47.402;8.550;2023-02-15T01:19:48;24.19;;;23.10;;
2710;SDS011;20721;47.402;8.550;2023-02-15T01:20:49;23.38;;;22.01;;
2710;SDS011;20721;47.402;8.550;2023-02-15T01:21:51;24.40;;;23.28;;
2710;SDS011;20721;47.402;8.550;2023-02-15T01:23:48;25.08;;;23.78;;
2710;SDS011;20721;47.402;8.550;2023-02-15T01:24:49;25.70;;;24.81;;
2710;SDS011;20721;47.402;8.550;2023-02-15T01:26:47;25.21;;;24.23;;
2710;SDS011;20721;47.402;8.550;2023-02-15T01:27:47;24.42;;;23.39;;
2710;SDS011;20721;47.402;8.550;2023-02-15T01:28:48;24.33;;;23.50;;
2710;SDS011;20721;47.402;8.550;2023-02-15T01:29:48;24.93;;;23.66;;
2710;SDS011;20721;47.402;8.550;2023-02-15T01:30:48;22.65;;;21.70;;
2710;SDS011;20721;47.402;8.550;2023-02-15T01:31:49;22.00;;;21.36;;
2710;SDS011;20721;47.402;8.550;2023-02-15T01:32:47;22.94;;;22.00;;
2710;SDS011;20721;47.402;8.550;2023-02-15T01:33:48;21.17;;;20.67;;
2710;SDS011;20721;47.402;8.550;2023-02-15T01:34:47;21.70;;;21.32;;
2710;SDS011;20721;47.402;8.550;2023-02-15T01:35:47;21.22;;;20.44;;
2710;SDS011;20721;47.402;8.550;2023-02-15T01:36:47;20.96;;;19.98;;
2710;SDS011;20721;47.402;8.550;2023-02-15T01:37:48;21.65;;;20.95;;
2710;SDS011;20721;47.402;8.550;2023-02-15T01:38:48;21.99;;;21.18;;
2710;SDS011;20721;47.402;8.550;2023-02-15T01:39:47;21.36;;;20.71;;
2710;SDS011;20721;47.402;8.550;2023-02-15T01:40:50;21.48;;;20.79;;
2710;SDS011;20721;47.402;8.550;2023-02-15T01:41:48;20.68;;;19.98;;
2710;SDS011;20721;47.402;8.550;2023-02-15T01:42:55;23.48;;;22.28;;
2710;SDS011;20721;47.402;8.550;2023-02-15T01:43:51;21.68;;;21.17;;
2710;SDS011;20721;47.402;8.550;2023-02-15T01:44:58;22.07;;;21.45;;
2710;SDS011;20721;47.402;8.550;2023-02-15T01:45:48;21.28;;;20.79;;
2710;SDS011;20721;47.402;8.550;2023-02-15T01:46:51;20.38;;;19.92;;
2710;SDS011;20721;47.402;8.550;2023-02-15T01:48:55;22.58;;;22.05;;
2710;SDS011;20721;47.402;8.550;2023-02-15T01:49:48;20.99;;;20.35;;
2710;SDS011;20721;47.402;8.550;2023-02-15T01:50:53;18.88;;;18.57;;
2710;SDS011;20721;47.402;8.550;2023-02-15T01:51:49;19.26;;;18.79;;
2710;SDS011;20721;47.402;8.550;2023-02-15T01:52:58;18.77;;;18.34;;
2710;SDS011;20721;47.402;8.550;2023-02-15T01:53:55;18.37;;;17.92;;
2710;SDS011;20721;47.402;8.550;2023-02-15T01:54:49;18.85;;;18.47;;
2710;SDS011;20721;47.402;8.550;2023-02-15T01:55:54;18.72;;;18.62;;
2710;SDS011;20721;47.402;8.550;2023-02-15T01:56:50;18.25;;;18.05;;
2710;SDS011;20721;47.402;8.550;2023-02-15T01:57:48;17.37;;;17.28;;
2710;SDS011;20721;47.402;8.550;2023-02-15T01:58:52;18.69;;;18.48;;
2710;SDS011;20721;47.402;8.550;2023-02-15T01:59:51;18.54;;;18.33;;
2710;SDS011;20721;47.402;8.550;2023-02-15T02:00:48;18.38;;;18.08;;
2710;SDS011;20721;47.402;8.550;2023-02-15T02:01:48;17.67;;;17.47;;
2710;SDS011;20721;47.402;8.550;2023-02-15T02:04:52;17.72;;;17.56;;
2710;SDS011;20721;47.402;8.550;2023-02-15T02:05:48;19.00;;;18.74;;
2710;SDS011;20721;47.402;8.550;2023-02-15T02:06:49;19.27;;;18.89;;
2710;SDS011;20721;47.402;8.550;2023-02-15T02:07:51;18.68;;;18.39;;
2710;SDS011;20721;47.402;8.550;2023-02-15T02:09:48;19.28;;;18.99;;
2710;SDS011;20721;47.402;8.550;2023-02-15T02:10:48;18.49;;;18.28;;
2710;SDS011;20721;47.402;8.550;2023-02-15T02:11:49;19.20;;;19.11;;
2710;SDS011;20721;47.402;8.550;2023-02-15T02:13:49;18.79;;;18.62;;
2710;SDS011;20721;47.402;8.550;2023-02-15T02:14:48;18.11;;;17.81;;
2710;SDS011;20721;47.402;8.550;2023-02-15T02:16:08;20.29;;;19.93;;
2710;SDS011;20721;47.402;8.550;2023-02-15T02:17:33;19.30;;;19.06;;
2710;SDS011;20721;47.402;8.550;2023-02-15T02:21:09;18.88;;;18.62;;
2710;SDS011;20721;47.402;8.550;2023-02-15T02:22:54;18.55;;;18.20;;
2710;SDS011;20721;47.402;8.550;2023-02-15T02:27:56;16.39;;;16.38;;
2710;SDS011;20721;47.402;8.550;2023-02-15T02:31:00;17.40;;;17.40;;
2710;SDS011;20721;47.402;8.550;2023-02-15T02:37:05;17.93;;;17.67;;
2710;SDS011;20721;47.402;8.550;2023-02-15T02:38:17;18.23;;;17.93;;
2710;SDS011;20721;47.402;8.550;2023-02-15T02:39:56;18.39;;;18.24;;
2710;SDS011;20721;47.402;8.550;2023-02-15T02:41:07;17.56;;;17.37;;
2710;SDS011;20721;47.402;8.550;2023-02-15T02:42:05;19.05;;;18.72;;
2710;SDS011;20721;47.402;8.550;2023-02-15T02:42:54;18.72;;;18.16;;
2710;SDS011;20721;47.402;8.550;2023-02-15T02:43:58;17.97;;;17.73;;
2710;SDS011;20721;47.402;8.550;2023-02-15T02:44:54;18.38;;;18.16;;
2710;SDS011;20721;47.402;8.550;2023-02-15T02:45:55;17.86;;;17.63;;
2710;SDS011;20721;47.402;8.550;2023-02-15T02:46:59;18.13;;;18.05;;
2710;SDS011;20721;47.402;8.550;2023-02-15T02:47:58;17.93;;;17.73;;
2710;SDS011;20721;47.402;8.550;2023-02-15T02:48:48;17.19;;;16.90;;
2710;SDS011;20721;47.402;8.550;2023-02-15T02:49:51;17.82;;;17.70;;
2710;SDS011;20721;47.402;8.550;2023-02-15T02:50:49;18.44;;;18.19;;
2710;SDS011;20721;47.402;8.550;2023-02-15T02:52:50;18.45;;;18.39;;
2710;SDS011;20721;47.402;8.550;2023-02-15T02:53:49;17.93;;;17.81;;
2710;SDS011;20721;47.402;8.550;2023-02-15T02:54:47;18.17;;;18.04;;
2710;SDS011;20721;47.402;8.550;2023-02-15T02:55:54;17.52;;;17.28;;
2710;SDS011;20721;47.402;8.550;2023-02-15T02:56:51;18.52;;;18.32;;
2710;SDS011;20721;47.402;8.550;2023-02-15T02:58:56;20.02;;;19.79;;
2710;SDS011;20721;47.402;8.550;2023-02-15T02:59:50;18.39;;;18.21;;
2710;SDS011;20721;47.402;8.550;2023-02-15T03:00:53;19.93;;;19.68;;
2710;SDS011;20721;47.402;8.550;2023-02-15T03:02:52;18.75;;;18.52;;
2710;SDS011;20721;47.402;8.550;2023-02-15T03:03:51;18.94;;;18.63;;
2710;SDS011;20721;47.402;8.550;2023-02-15T03:04:51;18.27;;;17.92;;
2710;SDS011;20721;47.402;8.550;2023-02-15T03:05:52;18.98;;;18.70;;
2710;SDS011;20721;47.402;8.550;2023-02-15T03:06:59;19.43;;;19.14;;
2710;SDS011;20721;47.402;8.550;2023-02-15T03:07:49;18.26;;;17.89;;
2710;SDS011;20721;47.402;8.550;2023-02-15T03:08:54;18.98;;;18.63;;
2710;SDS011;20721;47.402;8.550;2023-02-15T03:10:51;18.82;;;18.66;;
2710;SDS011;20721;47.402;8.550;2023-02-15T03:12:53;16.76;;;16.66;;
2710;SDS011;20721;47.402;8.550;2023-02-15T03:13:49;17.83;;;17.73;;
2710;SDS011;20721;47.402;8.550;2023-02-15T03:14:51;18.71;;;18.45;;
2710;SDS011;20721;47.402;8.550;2023-02-15T03:16:49;17.86;;;17.71;;
2710;SDS011;20721;47.402;8.550;2023-02-15T03:17:52;18.03;;;17.87;;
2710;SDS011;20721;47.402;8.550;2023-02-15T03:18:55;18.50;;;18.44;;
2710;SDS011;20721;47.402;8.550;2023-02-15T03:19:49;18.32;;;18.21;;
2710;SDS011;20721;47.402;8.550;2023-02-15T03:20:47;18.77;;;18.75;;
2710;SDS011;20721;47.402;8.550;2023-02-15T03:21:55;18.96;;;18.79;;
2710;SDS011;20721;47.402;8.550;2023-02-15T03:22:52;18.90;;;18.78;;
2710;SDS011;20721;47.402;8.550;2023-02-15T03:23:52;17.30;;;17.10;;
2710;SDS011;20721;47.402;8.550;2023-02-15T03:24:55;18.55;;;18.52;;
2710;SDS011;20721;47.402;8.550;2023-02-15T03:25:50;18.21;;;18.19;;
2710;SDS011;20721;47.402;8.550;2023-02-15T03:28:51;18.26;;;18.06;;
2710;SDS011;20721;47.402;8.550;2023-02-15T03:30:51;17.68;;;17.39;;
2710;SDS011;20721;47.402;8.550;2023-02-15T03:32:49;19.11;;;18.83;;
2710;SDS011;20721;47.402;8.550;2023-02-15T03:33:53;19.28;;;19.02;;
2710;SDS011;20721;47.402;8.550;2023-02-15T03:36:03;18.15;;;17.85;;
2710;SDS011;20721;47.402;8.550;2023-02-15T03:37:48;18.15;;;18.00;;
2710;SDS011;20721;47.402;8.550;2023-02-15T03:39:01;17.97;;;17.76;;
2710;SDS011;20721;47.402;8.550;2023-02-15T03:40:03;19.25;;;19.17;;
2710;SDS011;20721;47.402;8.550;2023-02-15T03:41:00;19.18;;;18.81;;
2710;SDS011;20721;47.402;8.550;2023-02-15T03:41:54;18.95;;;18.84;;
2710;SDS011;20721;47.402;8.550;2023-02-15T03:42:50;20.28;;;20.17;;
2710;SDS011;20721;47.402;8.550;2023-02-15T03:43:59;18.73;;;18.59;;
2710;SDS011;20721;47.402;8.550;2023-02-15T03:47:00;19.48;;;19.21;;
2710;SDS011;20721;47.402;8.550;2023-02-15T03:48:52;17.80;;;17.65;;
2710;SDS011;20721;47.402;8.550;2023-02-15T03:50:02;18.93;;;18.53;;
2710;SDS011;20721;47.402;8.550;2023-02-15T03:50:59;19.34;;;19.09;;
2710;SDS011;20721;47.402;8.550;2023-02-15T03:51:50;19.97;;;19.70;;
2710;SDS011;20721;47.402;8.550;2023-02-15T03:52:48;19.77;;;19.43;;
2710;SDS011;20721;47.402;8.550;2023-02-15T03:53:49;19.07;;;18.77;;
2710;SDS011;20721;47.402;8.550;2023-02-15T03:54:59;19.55;;;18.97;;
2710;SDS011;20721;47.402;8.550;2023-02-15T03:55:48;19.51;;;19.30;;
2710;SDS011;20721;47.402;8.550;2023-02-15T03:56:49;19.87;;;19.62;;
2710;SDS011;20721;47.402;8.550;2023-02-15T03:57:58;19.63;;;19.30;;
2710;SDS011;20721;47.402;8.550;2023-02-15T03:58:57;19.21;;;18.93;;
2710;SDS011;20721;47.402;8.550;2023-02-15T03:59:58;18.72;;;18.50;;
2710;SDS011;20721;47.402;8.550;2023-02-15T04:01:05;19.46;;;19.24;;
2710;SDS011;20721;47.402;8.550;2023-02-15T04:03:55;18.58;;;18.22;;
2710;SDS011;20721;47.402;8.550;2023-02-15T04:04:51;18.50;;;18.13;;
2710;SDS011;20721;47.402;8.550;2023-02-15T04:05:48;18.89;;;18.58;;
2710;SDS011;20721;47.402;8.550;2023-02-15T04:06:48;19.97;;;19.74;;
2710;SDS011;20721;47.402;8.550;2023-02-15T04:07:48;18.71;;;18.34;;
2710;SDS011;20721;47.402;8.550;2023-02-15T04:08:57;18.75;;;18.39;;
2710;SDS011;20721;47.402;8.550;2023-02-15T04:09:57;19.27;;;19.12;;
2710;SDS011;20721;47.402;8.550;2023-02-15T04:10:57;19.94;;;19.64;;
2710;SDS011;20721;47.402;8.550;2023-02-15T04:12:48;20.77;;;20.09;;
2710;SDS011;20721;47.402;8.550;2023-02-15T04:13:48;19.21;;;18.82;;
2710;SDS011;20721;47.402;8.550;2023-02-15T04:14:58;20.39;;;20.06;;
2710;SDS011;20721;47.402;8.550;2023-02-15T04:15:58;19.27;;;18.93;;
2710;SDS011;20721;47.402;8.550;2023-02-15T04:16:48;20.12;;;19.71;;
2710;SDS011;20721;47.402;8.550;2023-02-15T04:18:58;19.34;;;18.86;;
2710;SDS011;20721;47.402;8.550;2023-02-15T04:19:58;20.34;;;19.96;;
2710;SDS011;20721;47.402;8.550;2023-02-15T04:20:58;20.79;;;19.99;;
2710;SDS011;20721;47.402;8.550;2023-02-15T04:22:58;20.49;;;20.01;;
2710;SDS011;20721;47.402;8.550;2023-02-15T04:23:59;19.96;;;19.45;;
2710;SDS011;20721;47.402;8.550;2023-02-15T04:24:58;19.26;;;19.05;;
2710;SDS011;20721;47.402;8.550;2023-02-15T04:25:48;20.71;;;20.36;;
2710;SDS011;20721;47.402;8.550;2023-02-15T04:26:48;20.42;;;20.06;;
2710;SDS011;20721;47.402;8.550;2023-02-15T04:27:50;21.41;;;20.86;;
2710;SDS011;20721;47.402;8.550;2023-02-15T04:28:48;20.46;;;20.09;;
2710;SDS011;20721;47.402;8.550;2023-02-15T04:29:48;20.38;;;19.91;;
2710;SDS011;20721;47.402;8.550;2023-02-15T04:30:48;21.14;;;20.51;;
2710;SDS011;20721;47.402;8.550;2023-02-15T04:31:48;20.88;;;20.36;;
2710;SDS011;20721;47.402;8.550;2023-02-15T04:32:48;20.56;;;20.23;;
2710;SDS011;20721;47.402;8.550;2023-02-15T04:34:48;19.34;;;18.96;;
2710;SDS011;20721;47.402;8.550;2023-02-15T04:35:48;18.96;;;18.62;;
2710;SDS011;20721;47.402;8.550;2023-02-15T04:36:48;19.68;;;19.37;;
2710;SDS011;20721;47.402;8.550;2023-02-15T04:37:48;19.69;;;19.37;;
2710;SDS011;20721;47.402;8.550;2023-02-15T04:38:48;20.84;;;20.62;;
2710;SDS011;20721;47.402;8.550;2023-02-15T04:39:48;19.75;;;19.55;;
2710;SDS011;20721;47.402;8.550;2023-02-15T04:40:49;19.35;;;18.93;;
2710;SDS011;20721;47.402;8.550;2023-02-15T04:41:48;20.50;;;20.13;;
2710;SDS011;20721;47.402;8.550;2023-02-15T04:42:48;20.02;;;19.78;;
2710;SDS011;20721;47.402;8.550;2023-02-15T04:43:48;21.28;;;20.56;;
2710;SDS011;20721;47.402;8.550;2023-02-15T04:44:48;20.68;;;19.91;;
2710;SDS011;20721;47.402;8.550;2023-02-15T04:46:48;20.30;;;20.13;;
2710;SDS011;20721;47.402;8.550;2023-02-15T04:48:48;21.09;;;20.70;;
2710;SDS011;20721;47.402;8.550;2023-02-15T04:49:48;21.15;;;20.59;;
2710;SDS011;20721;47.402;8.550;2023-02-15T04:50:48;20.98;;;20.21;;
2710;SDS011;20721;47.402;8.550;2023-02-15T04:51:48;19.59;;;19.26;;
2710;SDS011;20721;47.402;8.550;2023-02-15T04:54:49;20.38;;;20.18;;
2710;SDS011;20721;47.402;8.550;2023-02-15T04:55:48;19.57;;;19.31;;
2710;SDS011;20721;47.402;8.550;2023-02-15T04:56:49;20.24;;;19.86;;
2710;SDS011;20721;47.402;8.550;2023-02-15T04:57:48;22.67;;;21.80;;
2710;SDS011;20721;47.402;8.550;2023-02-15T04:58:51;19.71;;;19.04;;
2710;SDS011;20721;47.402;8.550;2023-02-15T05:00:49;20.76;;;20.46;;
2710;SDS011;20721;47.402;8.550;2023-02-15T05:01:48;20.12;;;19.42;;
2710;SDS011;20721;47.402;8.550;2023-02-15T05:02:48;20.38;;;19.93;;
2710;SDS011;20721;47.402;8.550;2023-02-15T05:03:48;20.58;;;20.31;;
2710;SDS011;20721;47.402;8.550;2023-02-15T05:04:48;19.65;;;19.43;;
2710;SDS011;20721;47.402;8.550;2023-02-15T05:05:48;20.38;;;20.02;;
2710;SDS011;20721;47.402;8.550;2023-02-15T05:07:48;21.35;;;20.68;;
2710;SDS011;20721;47.402;8.550;2023-02-15T05:09:48;19.44;;;19.18;;
2710;SDS011;20721;47.402;8.550;2023-02-15T05:10:48;20.88;;;20.61;;
2710;SDS011;20721;47.402;8.550;2023-02-15T05:11:48;19.01;;;18.84;;
2710;SDS011;20721;47.402;8.550;2023-02-15T05:12:48;19.66;;;19.41;;
2710;SDS011;20721;47.402;8.550;2023-02-15T05:15:48;20.07;;;19.46;;
2710;SDS011;20721;47.402;8.550;2023-02-15T05:17:48;19.64;;;19.29;;
2710;SDS011;20721;47.402;8.550;2023-02-15T05:18:48;20.67;;;20.38;;
2710;SDS011;20721;47.402;8.550;2023-02-15T05:20:48;19.48;;;19.30;;
2710;SDS011;20721;47.402;8.550;2023-02-15T05:21:48;20.47;;;19.97;;
2710;SDS011;20721;47.402;8.550;2023-02-15T05:22:48;20.71;;;20.46;;
2710;SDS011;20721;47.402;8.550;2023-02-15T05:24:58;21.30;;;21.00;;
2710;SDS011;20721;47.402;8.550;2023-02-15T05:25:58;19.47;;;19.04;;
2710;SDS011;20721;47.402;8.550;2023-02-15T05:26:58;20.14;;;19.73;;
2710;SDS011;20721;47.402;8.550;2023-02-15T05:27:58;20.13;;;19.78;;
2710;SDS011;20721;47.402;8.550;2023-02-15T05:30:50;21.36;;;20.90;;
2710;SDS011;20721;47.402;8.550;2023-02-15T05:31:50;20.66;;;20.27;;
2710;SDS011;20721;47.402;8.550;2023-02-15T05:33:48;20.59;;;20.17;;
2710;SDS011;20721;47.402;8.550;2023-02-15T05:34:48;20.55;;;20.04;;
2710;SDS011;20721;47.402;8.550;2023-02-15T05:35:48;21.56;;;20.86;;
2710;SDS011;20721;47.402;8.550;2023-02-15T05:36:48;21.29;;;20.66;;
2710;SDS011;20721;47.402;8.550;2023-02-15T05:37:49;20.20;;;19.83;;
2710;SDS011;20721;47.402;8.550;2023-02-15T05:38:48;21.89;;;21.35;;
2710;SDS011;20721;47.402;8.550;2023-02-15T05:39:48;20.17;;;19.59;;
2710;SDS011;20721;47.402;8.550;2023-02-15T05:40:48;20.63;;;20.16;;
2710;SDS011;20721;47.402;8.550;2023-02-15T05:44:48;20.36;;;20.02;;
2710;SDS011;20721;47.402;8.550;2023-02-15T05:45:49;20.76;;;20.18;;
2710;SDS011;20721;47.402;8.550;2023-02-15T05:46:48;21.91;;;21.30;;
2710;SDS011;20721;47.402;8.550;2023-02-15T05:47:48;21.33;;;20.96;;
2710;SDS011;20721;47.402;8.550;2023-02-15T05:48:48;20.74;;;20.37;;
2710;SDS011;20721;47.402;8.550;2023-02-15T05:49:48;20.58;;;20.06;;
2710;SDS011;20721;47.402;8.550;2023-02-15T05:51:04;21.38;;;20.88;;
2710;SDS011;20721;47.402;8.550;2023-02-15T05:51:48;20.96;;;20.37;;
2710;SDS011;20721;47.402;8.550;2023-02-15T05:52:48;21.77;;;20.96;;
2710;SDS011;20721;47.402;8.550;2023-02-15T05:53:49;20.07;;;19.69;;
2710;SDS011;20721;47.402;8.550;2023-02-15T05:54:48;21.13;;;20.83;;
2710;SDS011;20721;47.402;8.550;2023-02-15T05:55:49;21.11;;;20.60;;
2710;SDS011;20721;47.402;8.550;2023-02-15T05:56:48;20.85;;;20.34;;
2710;SDS011;20721;47.402;8.550;2023-02-15T05:57:48;21.01;;;20.74;;
2710;SDS011;20721;47.402;8.550;2023-02-15T05:59:48;20.58;;;19.85;;
2710;SDS011;20721;47.402;8.550;2023-02-15T06:00:48;20.07;;;19.51;;
2710;SDS011;20721;47.402;8.550;2023-02-15T06:01:48;21.20;;;20.57;;
2710;SDS011;20721;47.402;8.550;2023-02-15T06:03:48;20.68;;;19.97;;
2710;SDS011;20721;47.402;8.550;2023-02-15T06:04:48;20.74;;;20.20;;
2710;SDS011;20721;47.402;8.550;2023-02-15T06:05:48;22.86;;;22.20;;
2710;SDS011;20721;47.402;8.550;2023-02-15T06:06:48;20.12;;;19.70;;
2710;SDS011;20721;47.402;8.550;2023-02-15T06:07:48;19.47;;;19.29;;
2710;SDS011;20721;47.402;8.550;2023-02-15T06:08:50;21.06;;;20.71;;
2710;SDS011;20721;47.402;8.550;2023-02-15T06:09:48;22.83;;;22.16;;
2710;SDS011;20721;47.402;8.550;2023-02-15T06:10:50;22.24;;;21.66;;
2710;SDS011;20721;47.402;8.550;2023-02-15T06:11:48;20.04;;;19.79;;
2710;SDS011;20721;47.402;8.550;2023-02-15T06:12:48;21.77;;;21.08;;
2710;SDS011;20721;47.402;8.550;2023-02-15T06:13:49;21.47;;;20.93;;
2710;SDS011;20721;47.402;8.550;2023-02-15T06:14:50;21.56;;;21.01;;
2710;SDS011;20721;47.402;8.550;2023-02-15T06:15:48;21.17;;;20.77;;
2710;SDS011;20721;47.402;8.550;2023-02-15T06:16:48;21.25;;;20.54;;
2710;SDS011;20721;47.402;8.550;2023-02-15T06:17:55;23.88;;;23.15;;
2710;SDS011;20721;47.402;8.550;2023-02-15T06:18:48;21.45;;;21.05;;
2710;SDS011;20721;47.402;8.550;2023-02-15T06:20:48;22.27;;;21.88;;
2710;SDS011;20721;47.402;8.550;2023-02-15T06:21:48;21.13;;;20.52;;
2710;SDS011;20721;47.402;8.550;2023-02-15T06:25:50;21.22;;;20.77;;
2710;SDS011;20721;47.402;8.550;2023-02-15T06:26:48;20.71;;;20.21;;
2710;SDS011;20721;47.402;8.550;2023-02-15T06:27:51;21.11;;;20.63;;
2710;SDS011;20721;47.402;8.550;2023-02-15T06:28:48;22.04;;;21.25;;
2710;SDS011;20721;47.402;8.550;2023-02-15T06:29:48;21.56;;;20.86;;
2710;SDS011;20721;47.402;8.550;2023-02-15T06:30:48;20.69;;;20.45;;
2710;SDS011;20721;47.402;8.550;2023-02-15T06:31:48;20.97;;;20.79;;
2710;SDS011;20721;47.402;8.550;2023-02-15T06:34:48;22.67;;;22.12;;
2710;SDS011;20721;47.402;8.550;2023-02-15T06:35:48;22.74;;;22.12;;
2710;SDS011;20721;47.402;8.550;2023-02-15T06:36:48;21.75;;;21.13;;
2710;SDS011;20721;47.402;8.550;2023-02-15T06:37:48;22.73;;;22.17;;
2710;SDS011;20721;47.402;8.550;2023-02-15T06:38:48;21.75;;;20.87;;
2710;SDS011;20721;47.402;8.550;2023-02-15T06:39:48;22.35;;;21.48;;
2710;SDS011;20721;47.402;8.550;2023-02-15T06:40:48;21.36;;;20.74;;
2710;SDS011;20721;47.402;8.550;2023-02-15T06:41:48;21.24;;;20.83;;
2710;SDS011;20721;47.402;8.550;2023-02-15T06:42:48;20.49;;;20.13;;
2710;SDS011;20721;47.402;8.550;2023-02-15T06:43:51;21.16;;;20.92;;
2710;SDS011;20721;47.402;8.550;2023-02-15T06:44:48;21.67;;;21.33;;
2710;SDS011;20721;47.402;8.550;2023-02-15T06:45:51;21.91;;;21.36;;
2710;SDS011;20721;47.402;8.550;2023-02-15T06:46:48;20.91;;;20.51;;
2710;SDS011;20721;47.402;8.550;2023-02-15T06:47:48;20.22;;;19.75;;
2710;SDS011;20721;47.402;8.550;2023-02-15T06:48:48;21.96;;;21.45;;
2710;SDS011;20721;47.402;8.550;2023-02-15T06:49:48;21.94;;;21.30;;
2710;SDS011;20721;47.402;8.550;2023-02-15T06:50:48;21.55;;;20.79;;
2710;SDS011;20721;47.402;8.550;2023-02-15T06:52:48;21.70;;;21.00;;
2710;SDS011;20721;47.402;8.550;2023-02-15T06:53:51;20.75;;;20.34;;
2710;SDS011;20721;47.402;8.550;2023-02-15T06:54:48;22.06;;;21.62;;
2710;SDS011;20721;47.402;8.550;2023-02-15T06:55:48;20.19;;;19.69;;
2710;SDS011;20721;47.402;8.550;2023-02-15T06:56:48;20.72;;;20.37;;
2710;SDS011;20721;47.402;8.550;2023-02-15T06:57:48;19.15;;;18.92;;
2710;SDS011;20721;47.402;8.550;2023-02-15T06:59:48;21.17;;;20.76;;
2710;SDS011;20721;47.402;8.550;2023-02-15T07:00:48;19.59;;;19.21;;
2710;SDS011;20721;47.402;8.550;2023-02-15T07:02:53;22.35;;;21.96;;
2710;SDS011;20721;47.402;8.550;2023-02-15T07:03:48;21.40;;;20.96;;
2710;SDS011;20721;47.402;8.550;2023-02-15T07:04:48;22.26;;;21.65;;
2710;SDS011;20721;47.402;8.550;2023-02-15T07:05:48;22.63;;;22.08;;
2710;SDS011;20721;47.402;8.550;2023-02-15T07:06:48;21.43;;;20.76;;
2710;SDS011;20721;47.402;8.550;2023-02-15T07:07:48;23.15;;;22.30;;
2710;SDS011;20721;47.402;8.550;2023-02-15T07:08:48;20.74;;;20.08;;
2710;SDS011;20721;47.402;8.550;2023-02-15T07:10:48;21.57;;;20.94;;
2710;SDS011;20721;47.402;8.550;2023-02-15T07:11:58;20.92;;;20.42;;
2710;SDS011;20721;47.402;8.550;2023-02-15T07:12:51;20.67;;;20.24;;
2710;SDS011;20721;47.402;8.550;2023-02-15T07:13:48;21.13;;;20.87;;
2710;SDS011;20721;47.402;8.550;2023-02-15T07:14:48;21.73;;;21.16;;
2710;SDS011;20721;47.402;8.550;2023-02-15T07:15:48;22.90;;;22.22;;
2710;SDS011;20721;47.402;8.550;2023-02-15T07:16:48;21.42;;;20.84;;
2710;SDS011;20721;47.402;8.550;2023-02-15T07:17:49;20.44;;;19.94;;
2710;SDS011;20721;47.402;8.550;2023-02-15T07:18:49;22.71;;;22.07;;